Time;durP1;ratioP1;P1;durP2;ratioP2;P2;SDS_P1;SDS_P2;PMS_P1;PMS_P2;Temp;Humidity;BMP_temperature;BMP_pressure;BME280_temperature;BME280_humidity;BME280_pressure;Samples;Min_cycle;Max_cycle;Signal;HPM_P1;HPM_P2
2021/05/28 00:00:32;;;;;;;15.40;9.70;;;;;;;11.69;75.82;100923.34;5054374;28;20055;-64
2021/05/28 00:02:59;;;;;;;16.27;8.52;;;;;;;11.62;76.10;100936.06;5054020;28;20049;-64
2021/05/28 00:05:27;;;;;;;13.65;8.40;;;;;;;11.54;76.45;100932.03;5053723;28;20053;-64
2021/05/28 00:07:55;;;;;;;17.90;9.52;;;;;;;11.48;76.54;100933.25;5053869;28;20049;-64
2021/05/28 00:10:22;;;;;;;15.77;9.18;;;;;;;11.40;76.72;100931.19;5053708;28;20060;-64
2021/05/28 00:12:51;;;;;;;17.15;9.25;;;;;;;11.30;76.90;100933.06;5052180;28;20056;-64
2021/05/28 00:15:18;;;;;;;15.98;10.32;;;;;;;11.22;77.18;100939.34;5053375;28;20064;-64
2021/05/28 00:17:45;;;;;;;19.23;9.82;;;;;;;11.16;77.24;100941.38;5053130;28;20052;-64
2021/05/28 00:20:14;;;;;;;16.58;10.65;;;;;;;11.06;77.57;100940.75;5053615;28;20068;-64
2021/05/28 00:22:42;;;;;;;19.67;11.60;;;;;;;10.97;77.42;100951.78;5053560;28;20053;-64
2021/05/28 00:25:10;;;;;;;20.83;11.85;;;;;;;10.88;77.86;100950.81;5052694;28;20049;-64
2021/05/28 00:27:37;;;;;;;25.13;12.50;;;;;;;10.82;78.17;100950.06;5053285;28;20049;-64
2021/05/28 00:30:07;;;;;;;20.45;12.40;;;;;;;10.75;78.46;100957.97;5053818;28;20544;-64
2021/05/28 00:32:34;;;;;;;23.77;13.27;;;;;;;10.70;78.56;100952.50;5053889;28;20049;-64
2021/05/28 00:35:01;;;;;;;18.60;11.82;;;;;;;10.67;79.12;100951.16;5053386;28;20049;-64
2021/05/28 00:37:28;;;;;;;23.67;13.63;;;;;;;10.65;79.50;100955.38;5052937;28;20056;-64
2021/05/28 00:39:54;;;;;;;21.20;12.80;;;;;;;10.67;79.62;100955.91;5053192;28;20053;-65
2021/05/28 00:42:22;;;;;;;20.83;12.23;;;;;;;10.70;79.80;100958.06;5052742;28;20060;-64
2021/05/28 00:44:49;;;;;;;20.92;12.55;;;;;;;10.73;79.83;100952.75;5053021;28;20053;-64
2021/05/28 00:47:16;;;;;;;20.25;12.35;;;;;;;10.79;79.99;100955.44;5053502;28;20056;-64
2021/05/28 00:49:43;;;;;;;20.30;11.10;;;;;;;10.82;79.94;100955.66;5053104;28;20493;-65
2021/05/28 00:52:12;;;;;;;18.17;12.95;;;;;;;10.82;79.52;100957.63;5052887;28;20057;-64
2021/05/28 00:54:40;;;;;;;18.48;12.95;;;;;;;10.89;79.35;100958.88;5053055;28;20072;-65
2021/05/28 00:57:07;;;;;;;17.80;12.07;;;;;;;10.93;79.02;100962.69;5052460;28;20060;-64
2021/05/28 00:59:35;;;;;;;22.35;12.30;;;;;;;10.99;78.97;100968.19;5053275;28;20057;-64
2021/05/28 01:02:02;;;;;;;14.60;10.95;;;;;;;11.03;78.83;100960.88;5053027;28;20045;-64
2021/05/28 01:04:30;;;;;;;16.33;10.68;;;;;;;11.09;78.63;100956.88;5051763;28;20049;-64
2021/05/28 01:06:57;;;;;;;19.05;11.45;;;;;;;11.12;78.27;100956.25;5051828;28;20500;-64
2021/05/28 01:09:24;;;;;;;19.30;11.57;;;;;;;11.12;78.08;100959.84;5052883;28;20062;-64
2021/05/28 01:11:51;;;;;;;18.58;10.38;;;;;;;11.14;77.90;100965.13;5051944;28;20494;-64
2021/05/28 01:14:18;;;;;;;15.27;10.85;;;;;;;11.16;78.03;100966.47;5052289;28;20057;-63
2021/05/28 01:16:45;;;;;;;15.73;10.50;;;;;;;11.18;78.26;100968.97;5055745;28;20060;-64
2021/05/28 01:19:12;;;;;;;19.98;10.95;;;;;;;11.21;77.99;100968.34;5055384;28;20060;-63
2021/05/28 01:21:42;;;;;;;14.75;10.07;;;;;;;11.24;77.47;100969.72;5055421;28;20068;-64
2021/05/28 01:24:11;;;;;;;14.68;10.23;;;;;;;11.26;77.05;100968.25;5055127;28;20049;-64
2021/05/28 01:26:38;;;;;;;15.85;10.95;;;;;;;11.25;76.94;100969.38;5055579;28;20049;-64
2021/05/28 01:29:07;;;;;;;16.88;11.07;;;;;;;11.25;77.25;100983.31;5054998;28;20413;-64
2021/05/28 01:31:35;;;;;;;18.67;11.18;;;;;;;11.23;77.40;100977.22;5055512;28;20494;-64
2021/05/28 01:34:03;;;;;;;16.25;10.48;;;;;;;11.26;77.39;100976.63;5056012;28;20060;-64
2021/05/28 01:36:30;;;;;;;17.58;10.27;;;;;;;11.26;77.02;100981.38;5055552;28;20053;-63
2021/05/28 01:38:57;;;;;;;15.93;10.13;;;;;;;11.29;77.09;100972.41;5055561;28;20076;-64
2021/05/28 01:41:29;;;;;;;15.93;10.25;;;;;;;11.30;77.23;100974.88;5055157;28;20060;-63
2021/05/28 01:43:56;;;;;;;14.98;9.88;;;;;;;11.31;76.80;100976.53;5055385;28;20469;-64
2021/05/28 01:46:23;;;;;;;15.70;10.23;;;;;;;11.32;76.72;100972.63;5055157;28;20496;-64
2021/05/28 01:48:51;;;;;;;15.77;10.00;;;;;;;11.28;76.83;100974.38;5055268;28;20049;-64
2021/05/28 01:51:18;;;;;;;13.13;9.57;;;;;;;11.31;76.71;100968.16;5054940;28;20044;-64
2021/05/28 01:53:45;;;;;;;14.70;10.52;;;;;;;11.32;76.94;100969.81;5054926;28;20060;-64
2021/05/28 01:56:12;;;;;;;15.80;9.80;;;;;;;11.36;76.90;100976.44;5055218;28;20170;-64
2021/05/28 01:58:40;;;;;;;13.20;9.30;;;;;;;11.42;77.08;100973.53;5055438;28;20053;-64
2021/05/28 02:01:10;;;;;;;15.30;9.63;;;;;;;11.50;76.54;100975.63;5054907;28;20076;-63
2021/05/28 02:03:37;;;;;;;16.02;9.02;;;;;;;11.51;76.43;100972.53;5054871;28;20049;-64
2021/05/28 02:06:04;;;;;;;14.02;9.00;;;;;;;11.55;76.41;100973.56;5054629;28;20049;-64
2021/05/28 02:08:31;;;;;;;13.20;8.50;;;;;;;11.59;76.42;100973.78;5055451;28;20055;-64
2021/05/28 02:10:58;;;;;;;11.75;8.50;;;;;;;11.63;76.24;100972.00;5054810;28;20080;-64
2021/05/28 02:13:25;;;;;;;12.40;8.82;;;;;;;11.64;76.16;100970.88;5054788;28;20060;-64
2021/05/28 02:15:53;;;;;;;15.57;9.25;;;;;;;11.67;75.89;100973.03;5055147;28;20401;-64
2021/05/28 02:18:22;;;;;;;14.02;8.95;;;;;;;11.70;75.78;100974.41;5054448;28;20057;-64
2021/05/28 02:20:49;;;;;;;15.45;8.35;;;;;;;11.71;75.52;100976.88;5056409;28;20057;-64
2021/05/28 02:23:16;;;;;;;13.73;8.15;;;;;;;11.71;75.43;100976.88;5055691;28;20060;-64
2021/05/28 02:25:43;;;;;;;13.27;8.23;;;;;;;11.73;75.34;100980.19;5055724;28;20053;-64
2021/05/28 02:28:10;;;;;;;17.35;8.85;;;;;;;11.67;75.48;100975.84;5056463;28;20053;-64
2021/05/28 02:30:37;;;;;;;12.80;7.93;;;;;;;11.71;75.35;100973.25;5056085;28;20057;-64
2021/05/28 02:33:05;;;;;;;13.02;7.90;;;;;;;11.75;75.10;100977.09;5056505;28;20050;-64
2021/05/28 02:35:32;;;;;;;12.88;8.10;;;;;;;11.75;75.35;100982.66;5056008;28;20067;-64
2021/05/28 02:37:59;;;;;;;14.18;8.70;;;;;;;11.73;75.24;100977.41;5055345;28;20049;-64
2021/05/28 02:40:28;;;;;;;14.10;9.77;;;;;;;11.67;75.34;100984.22;5055859;28;20486;-64
2021/05/28 02:42:55;;;;;;;16.17;10.80;;;;;;;11.64;75.21;100976.47;5055883;28;20057;-64
2021/05/28 02:45:22;;;;;;;13.35;10.40;;;;;;;11.64;75.04;100987.63;5056047;28;20060;-64
2021/05/28 02:47:49;;;;;;;18.40;10.35;;;;;;;11.60;75.47;100982.97;5055490;28;20053;-64
2021/05/28 02:50:17;;;;;;;13.00;10.00;;;;;;;11.62;74.88;100989.91;5056165;28;20064;-64
2021/05/28 02:52:43;;;;;;;14.73;10.10;;;;;;;11.64;74.95;100987.63;5056404;28;20053;-64
2021/05/28 02:55:13;;;;;;;15.50;9.63;;;;;;;11.66;74.92;100990.94;5055455;28;20053;-64
2021/05/28 02:57:40;;;;;;;15.77;10.30;;;;;;;11.70;74.61;100991.16;5055620;28;20075;-64
2021/05/28 03:00:08;;;;;;;16.30;9.50;;;;;;;11.69;74.82;100995.06;5055104;28;20053;-64
2021/05/28 03:02:35;;;;;;;13.68;9.82;;;;;;;11.71;75.22;100992.78;5055402;28;20057;-64
2021/05/28 03:05:02;;;;;;;12.15;10.02;;;;;;;11.73;75.08;101001.69;5055928;28;20431;-64
2021/05/28 03:07:30;;;;;;;15.77;10.65;;;;;;;11.72;74.52;101000.88;5055607;28;20056;-64
2021/05/28 03:09:57;;;;;;;21.00;11.02;;;;;;;11.69;74.34;101000.66;5055981;28;20060;-64
2021/05/28 03:12:24;;;;;;;18.88;11.70;;;;;;;11.64;74.36;100993.22;5056361;28;20056;-64
2021/05/28 03:14:53;;;;;;;17.73;11.48;;;;;;;11.61;74.63;100995.78;5056020;28;20064;-64
2021/05/28 03:17:20;;;;;;;15.57;11.07;;;;;;;11.60;74.68;101002.53;5055282;28;20045;-64
2021/05/28 03:19:48;;;;;;;19.27;11.40;;;;;;;11.58;74.86;100992.47;5055753;28;20064;-64
2021/05/28 03:22:34;;;;;;;19.52;12.05;;;;;;;11.58;74.69;100998.06;5055711;28;20052;-64
2021/05/28 03:25:04;;;;;;;16.67;11.65;;;;;;;11.63;74.77;101007.47;5055384;28;20057;-64
2021/05/28 03:27:31;;;;;;;16.45;12.32;;;;;;;11.62;75.09;101006.66;5055840;28;20053;-64
2021/05/28 03:29:58;;;;;;;20.60;13.63;;;;;;;11.66;74.22;101004.91;5055845;28;20059;-64
2021/05/28 03:32:24;;;;;;;16.83;11.75;;;;;;;11.67;74.08;101019.66;5056054;28;20481;-64
2021/05/28 03:34:52;;;;;;;19.50;12.82;;;;;;;11.70;74.01;101011.50;5055559;28;20063;-64
2021/05/28 03:37:19;;;;;;;21.92;13.30;;;;;;;11.73;74.06;101005.31;5054674;28;20056;-64
2021/05/28 03:39:47;;;;;;;15.35;12.98;;;;;;;11.75;74.24;101011.41;5036187;28;20053;-64
2021/05/28 03:42:15;;;;;;;15.82;12.27;;;;;;;11.77;74.64;101011.09;5035917;28;20083;-64
2021/05/28 03:44:42;;;;;;;16.92;12.35;;;;;;;11.80;74.29;101007.72;5053883;28;20061;-64
2021/05/28 03:47:08;;;;;;;19.38;12.18;;;;;;;11.83;74.73;101017.41;5055160;28;20063;-64
2021/05/28 03:49:35;;;;;;;17.33;12.13;;;;;;;11.84;74.42;101019.88;5055801;28;20045;-64
2021/05/28 03:52:03;;;;;;;16.77;12.30;;;;;;;11.89;74.08;101027.38;5055265;28;20064;-64
2021/05/28 03:54:29;;;;;;;16.52;12.13;;;;;;;11.89;74.62;101028.19;5055811;28;20053;-64
2021/05/28 03:56:57;;;;;;;19.90;12.50;;;;;;;11.90;74.50;101029.84;5056475;28;20072;-64
2021/05/28 03:59:24;;;;;;;18.95;11.70;;;;;;;11.94;74.20;101035.63;5056295;28;20064;-64
2021/05/28 04:01:51;;;;;;;15.73;12.38;;;;;;;11.97;74.20;101023.88;5055898;28;20053;-64
2021/05/28 04:04:18;;;;;;;16.02;12.30;;;;;;;11.98;74.18;101025.50;5057031;28;20053;-64
2021/05/28 04:06:45;;;;;;;16.10;12.60;;;;;;;12.01;74.05;101027.69;5056167;28;20049;-64
2021/05/28 04:09:12;;;;;;;16.65;12.88;;;;;;;12.03;73.23;101030.16;5056584;28;20057;-64
2021/05/28 04:11:39;;;;;;;18.25;12.52;;;;;;;12.05;72.64;101037.06;5056433;28;20056;-64
2021/05/28 04:14:05;;;;;;;19.90;13.25;;;;;;;12.04;73.13;101043.81;5055089;28;20048;-64
2021/05/28 04:16:33;;;;;;;15.18;12.48;;;;;;;12.05;73.23;101053.81;5056191;28;20489;-64
2021/05/28 04:19:00;;;;;;;17.63;14.15;;;;;;;12.06;73.07;101047.13;5055450;28;20053;-64
2021/05/28 04:21:27;;;;;;;18.27;13.32;;;;;;;12.10;72.89;101048.16;5055946;28;20056;-64
2021/05/28 04:23:55;;;;;;;17.42;13.27;;;;;;;12.15;73.21;101053.63;5056140;28;20047;-64
2021/05/28 04:26:21;;;;;;;18.55;14.15;;;;;;;12.19;73.21;101060.25;5056102;28;20056;-64
2021/05/28 04:28:49;;;;;;;16.05;13.65;;;;;;;12.25;73.49;101066.56;5055941;28;20048;-64
2021/05/28 04:31:16;;;;;;;17.50;14.07;;;;;;;12.31;73.10;101072.88;5055679;28;20501;-64
2021/05/28 04:33:43;;;;;;;19.08;13.75;;;;;;;12.37;72.71;101068.84;5056364;28;20057;-64
2021/05/28 04:36:10;;;;;;;18.50;13.75;;;;;;;12.38;72.67;101064.88;5056275;28;20053;-64
2021/05/28 04:38:38;;;;;;;20.65;13.93;;;;;;;12.45;73.12;101067.25;5056137;28;20053;-64
2021/05/28 04:41:07;;;;;;;22.33;14.48;;;;;;;12.53;72.82;101066.53;5056482;28;20057;-64
2021/05/28 04:43:34;;;;;;;22.38;13.43;;;;;;;12.62;72.24;101066.59;5056073;28;20069;-64
2021/05/28 04:46:01;;;;;;;20.13;14.50;;;;;;;12.70;71.88;101077.03;5055379;28;20060;-64
2021/05/28 04:48:28;;;;;;;19.45;14.02;;;;;;;12.83;71.55;101078.16;5057133;28;20045;-64
2021/05/28 04:50:56;;;;;;;19.25;14.60;;;;;;;12.93;71.27;101078.75;5059977;28;20053;-64
2021/05/28 04:53:22;;;;;;;21.42;14.57;;;;;;;13.06;70.64;101077.06;5060352;28;20056;-64
2021/05/28 04:55:49;;;;;;;21.27;15.63;;;;;;;13.15;69.64;101077.13;5059267;28;20068;-64
2021/05/28 04:58:16;;;;;;;19.60;15.07;;;;;;;13.15;69.28;101075.16;5060285;28;20474;-64
2021/05/28 05:00:44;;;;;;;21.50;15.88;;;;;;;13.02;69.38;101078.00;5059285;28;20060;-64
2021/05/28 05:03:11;;;;;;;26.77;17.38;;;;;;;12.81;69.82;101081.28;5060386;28;20394;-64
2021/05/28 05:05:40;;;;;;;22.63;16.45;;;;;;;12.68;69.86;101082.97;5059546;28;20520;-64
2021/05/28 05:08:07;;;;;;;26.70;18.65;;;;;;;12.55;70.60;101079.03;5058905;28;20049;-64
2021/05/28 05:10:34;;;;;;;22.63;17.50;;;;;;;12.43;70.90;101077.91;5059258;28;20049;-64
2021/05/28 05:13:09;;;;;;;25.38;17.98;;;;;;;12.38;70.57;101084.44;5057151;28;20045;-64
2021/05/28 05:15:36;;;;;;;24.38;17.67;;;;;;;12.34;70.54;101089.81;5057217;28;20063;-64
2021/05/28 05:18:03;;;;;;;26.92;17.65;;;;;;;12.29;70.59;101086.31;5056708;28;20053;-64
2021/05/28 05:20:29;;;;;;;25.92;17.33;;;;;;;12.25;71.00;101090.88;5058683;28;20064;-64
2021/05/28 05:22:56;;;;;;;28.83;18.25;;;;;;;12.22;70.82;101097.91;5058435;28;20045;-64
2021/05/28 05:25:24;;;;;;;28.27;18.23;;;;;;;12.19;71.45;101096.56;5057361;28;20053;-64
2021/05/28 05:27:51;;;;;;;25.80;18.55;;;;;;;12.27;72.02;101099.78;5059112;28;20048;-64
2021/05/28 05:30:19;;;;;;;27.55;18.65;;;;;;;12.42;71.75;101104.22;5058003;28;20377;-64
2021/05/28 05:32:46;;;;;;;27.38;18.38;;;;;;;12.54;71.10;101102.53;5058564;28;20057;-64
2021/05/28 05:35:14;;;;;;;29.38;19.70;;;;;;;12.66;70.50;101112.34;5059138;28;20516;-64
2021/05/28 05:37:41;;;;;;;25.88;17.83;;;;;;;12.73;68.94;101113.59;5058717;28;20461;-64
2021/05/28 05:40:09;;;;;;;28.75;17.35;;;;;;;12.79;68.49;101106.75;5058600;28;20052;-64
2021/05/28 05:42:39;;;;;;;26.75;18.23;;;;;;;12.89;68.14;101111.28;5058665;28;20060;-64
2021/05/28 05:45:06;;;;;;;;;;;;;;;12.91;67.91;101108.97;5059427;28;20144;-64
2021/05/28 05:47:34;;;;;;;25.73;16.67;;;;;;;13.03;67.34;101114.03;5055752;28;19921;-64
2021/05/28 05:50:00;;;;;;;24.70;16.80;;;;;;;13.06;66.87;101123.75;5058359;28;20065;-64
2021/05/28 05:52:29;;;;;;;24.33;16.67;;;;;;;13.06;66.29;101121.81;5053940;28;20055;-64
2021/05/28 05:54:56;;;;;;;23.42;17.08;;;;;;;13.10;66.85;101122.84;5055549;28;20053;-64
2021/05/28 05:57:23;;;;;;;22.10;17.23;;;;;;;13.10;66.50;101114.44;5057539;28;20048;-64
2021/05/28 05:59:53;;;;;;;22.80;16.63;;;;;;;13.16;65.78;101113.16;5058145;28;20053;-64
2021/05/28 06:02:20;;;;;;;21.00;14.10;;;;;;;13.21;64.49;101115.03;5056745;28;20391;-64
2021/05/28 06:04:47;;;;;;;21.08;15.95;;;;;;;13.37;64.35;101116.31;5056577;28;20045;-64
2021/05/28 06:07:14;;;;;;;23.08;15.93;;;;;;;13.50;64.46;101119.38;5054103;28;20405;-64
2021/05/28 06:09:41;;;;;;;20.65;15.63;;;;;;;13.60;64.74;101117.13;5039377;28;20061;-63
2021/05/28 06:12:08;;;;;;;21.80;14.75;;;;;;;13.74;63.82;101125.47;5056064;28;20387;-64
2021/05/28 06:14:35;;;;;;;18.73;12.88;;;;;;;13.74;63.48;101117.06;5056318;28;20486;-64
2021/05/28 06:17:04;;;;;;;19.20;13.02;;;;;;;13.72;63.61;101115.75;5056393;28;20133;-63
2021/05/28 06:19:31;;;;;;;17.80;11.10;;;;;;;13.71;63.38;101120.53;5055814;28;20057;-63
2021/05/28 06:21:58;;;;;;;14.40;10.60;;;;;;;13.69;63.13;101114.41;5056152;28;20053;-64
2021/05/28 06:24:25;;;;;;;15.48;10.30;;;;;;;13.55;62.73;101127.66;5054805;28;20053;-64
2021/05/28 06:26:52;;;;;;;12.43;9.77;;;;;;;13.51;62.89;101126.63;5056327;28;20056;-63
2021/05/28 06:29:18;;;;;;;11.32;9.18;;;;;;;13.56;62.01;101124.50;5056320;28;20049;-64
2021/05/28 06:31:45;;;;;;;14.02;9.60;;;;;;;13.55;62.69;101124.84;5055830;28;20055;-64
2021/05/28 06:34:13;;;;;;;11.48;9.48;;;;;;;13.56;62.54;101129.28;5056781;28;20045;-64
2021/05/28 06:36:40;;;;;;;13.70;9.05;;;;;;;13.52;62.11;101125.47;5056115;28;20056;-64
2021/05/28 06:39:10;;;;;;;10.93;8.05;;;;;;;13.52;61.08;101131.06;5057182;28;20057;-63
2021/05/28 06:41:37;;;;;;;9.88;6.93;;;;;;;13.47;59.91;101134.00;5056688;28;20409;-64
2021/05/28 06:44:05;;;;;;;12.60;7.93;;;;;;;13.52;61.28;101133.88;5057260;28;20064;-64
2021/05/28 06:46:32;;;;;;;10.48;8.48;;;;;;;13.53;60.83;101129.94;5055670;28;20469;-64
2021/05/28 06:48:59;;;;;;;12.80;8.25;;;;;;;13.51;61.13;101127.47;5057373;28;20064;-63
2021/05/28 06:51:27;;;;;;;14.48;8.75;;;;;;;13.54;62.93;101124.03;5057592;28;20056;-64
2021/05/28 06:53:54;;;;;;;15.65;9.70;;;;;;;13.59;63.58;101128.66;5056776;28;20405;-64
2021/05/28 06:56:21;;;;;;;12.20;8.43;;;;;;;13.60;62.12;101127.50;5059205;28;20045;-62
2021/05/28 06:58:49;;;;;;;14.00;8.65;;;;;;;13.67;61.39;101138.25;5052618;28;20053;-62
2021/05/28 07:01:16;;;;;;;12.95;8.18;;;;;;;13.72;61.02;101136.16;5055996;28;20048;-62
2021/05/28 07:03:45;;;;;;;11.73;9.05;;;;;;;13.67;62.25;101136.31;5060186;28;20505;-62
2021/05/28 07:06:12;;;;;;;13.45;9.10;;;;;;;13.86;62.02;101149.25;5059619;28;20045;-62
2021/05/28 07:08:40;;;;;;;11.55;9.52;;;;;;;14.02;63.31;101156.91;5059343;28;20473;-62
2021/05/28 07:11:07;;;;;;;14.10;9.73;;;;;;;14.26;61.95;101160.50;5058688;28;20060;-62
2021/05/28 07:13:34;;;;;;;10.70;8.68;;;;;;;14.53;58.98;101159.47;5056445;28;20059;-62
2021/05/28 07:16:01;;;;;;;13.43;8.82;;;;;;;14.69;58.95;101162.69;5057683;28;20474;-62
2021/05/28 07:18:28;;;;;;;13.25;9.77;;;;;;;15.32;59.33;101154.88;5045224;28;20057;-62
2021/05/28 07:20:55;;;;;;;14.40;9.70;;;;;;;15.93;56.70;101154.81;5057509;28;20052;-61
2021/05/28 07:23:23;;;;;;;10.90;9.10;;;;;;;16.39;54.73;101165.25;5058475;28;20056;-61
2021/05/28 07:25:51;;;;;;;9.98;8.57;;;;;;;16.73;54.07;101159.81;5054493;28;20057;-62
2021/05/28 07:28:18;;;;;;;11.23;7.40;;;;;;;17.19;52.86;101163.69;5056438;28;20057;-62
2021/05/28 07:30:47;;;;;;;10.40;7.13;;;;;;;17.60;52.85;101176.94;5059729;28;20504;-62
2021/05/28 07:33:14;;;;;;;9.52;6.70;;;;;;;18.04;50.89;101163.25;5053244;28;20057;-62
2021/05/28 07:35:41;;;;;;;9.85;6.93;;;;;;;18.11;49.87;101165.50;5047014;28;20049;-62
2021/05/28 07:38:08;;;;;;;10.00;6.35;;;;;;;17.91;48.91;101169.19;5058314;28;20049;-62
2021/05/28 07:40:35;;;;;;;10.93;6.55;;;;;;;17.73;50.02;101175.00;5056163;28;20060;-62
2021/05/28 07:43:02;;;;;;;10.82;6.78;;;;;;;17.80;50.86;101172.41;5051589;28;20049;-62
2021/05/28 07:45:29;;;;;;;7.78;5.80;;;;;;;17.88;49.60;101175.53;5058256;28;20045;-62
2021/05/28 07:47:56;;;;;;;9.68;6.30;;;;;;;17.93;49.66;101164.88;5056533;28;20056;-62
2021/05/28 07:50:23;;;;;;;8.93;5.75;;;;;;;19.13;47.46;101162.88;5055864;28;20053;-62
2021/05/28 07:52:51;;;;;;;7.85;5.07;;;;;;;19.16;46.05;101173.44;5058448;28;20048;-62
2021/05/28 07:55:18;;;;;;;8.25;5.50;;;;;;;19.35;43.29;101169.16;5058520;28;20059;-62
2021/05/28 07:57:45;;;;;;;7.68;4.95;;;;;;;22.57;36.83;101156.16;5059041;28;20071;-62
2021/05/28 08:00:14;;;;;;;5.88;5.10;;;;;;;25.01;32.92;101150.56;5059521;28;20057;-62
2021/05/28 08:02:46;;;;;;;7.80;5.32;;;;;;;27.29;29.50;101150.63;5055781;28;20068;-62
2021/05/28 08:05:13;;;;;;;6.80;4.55;;;;;;;27.27;28.90;101148.16;5057319;28;20057;-62
2021/05/28 08:07:40;;;;;;;7.28;5.20;;;;;;;26.71;28.97;101158.44;5056487;28;20052;-62
2021/05/28 08:10:10;;;;;;;10.75;6.60;;;;;;;25.37;31.55;101165.03;5055160;28;20045;-62
2021/05/28 08:12:37;;;;;;;8.60;5.97;;;;;;;24.25;31.70;101169.03;5060082;28;20060;-62
2021/05/28 08:15:06;;;;;;;6.72;5.10;;;;;;;26.29;29.95;101157.19;5060532;28;20060;-62
2021/05/28 08:20:19;;;;;;;8.32;5.45;;;;;;;27.97;27.66;101160.97;5056718;28;20060;-62
2021/05/28 08:22:45;;;;;;;6.85;4.93;;;;;;;26.37;28.94;101164.53;5057507;28;20065;-61
2021/05/28 08:25:14;;;;;;;8.27;5.53;;;;;;;25.31;31.11;101160.94;5056919;28;20061;-61
2021/05/28 08:27:40;;;;;;;7.10;5.22;;;;;;;24.72;32.16;101163.78;5057204;28;20061;-61
2021/05/28 08:30:08;;;;;;;7.57;5.57;;;;;;;24.39;31.44;101159.78;5040232;28;20390;-61
2021/05/28 08:32:36;;;;;;;8.45;5.47;;;;;;;28.00;26.42;101163.81;5047095;28;20059;-61
2021/05/28 08:35:03;;;;;;;7.40;4.63;;;;;;;29.34;24.36;101152.88;5058825;28;20040;-61
2021/05/28 08:37:30;;;;;;;7.75;4.88;;;;;;;28.63;25.38;101166.69;5058228;28;20056;-61
2021/05/28 08:39:57;;;;;;;8.25;5.57;;;;;;;28.83;24.40;101160.34;5059876;28;20045;-61
2021/05/28 08:42:24;;;;;;;8.43;5.05;;;;;;;30.08;22.93;101160.97;5058305;28;20064;-61
2021/05/28 08:44:51;;;;;;;7.38;5.25;;;;;;;32.49;20.42;101155.03;5059599;28;20049;-61
2021/05/28 08:47:18;;;;;;;7.07;4.95;;;;;;;34.75;17.46;101147.59;5058169;28;20053;-61
2021/05/28 08:49:48;;;;;;;8.15;5.28;;;;;;;36.18;17.47;101150.13;5058740;28;20056;-61
2021/05/28 08:52:15;;;;;;;7.00;5.45;;;;;;;35.03;17.11;101154.47;5058341;28;20386;-61
2021/05/28 08:54:43;;;;;;;8.68;5.30;;;;;;;32.41;20.53;101164.34;5058198;28;20055;-61
2021/05/28 08:57:10;;;;;;;6.25;5.40;;;;;;;30.40;21.94;101163.34;5059093;28;20053;-61
2021/05/28 08:59:38;;;;;;;10.73;6.47;;;;;;;29.10;23.55;101154.78;5058990;28;20068;-62
2021/05/28 09:02:25;;;;;;;8.15;5.75;;;;;;;28.37;24.75;101161.53;5057860;28;20054;-61
2021/05/28 09:05:11;;;;;;;9.70;5.80;;;;;;;32.61;20.84;101161.38;5057904;28;20053;-61
2021/05/28 09:07:42;;;;;;;6.57;5.20;;;;;;;35.73;16.97;101142.81;5045407;28;20049;-61
2021/05/28 09:10:29;;;;;;;7.35;4.85;;;;;;;38.60;14.54;101137.88;5058477;28;20068;-62
2021/05/28 09:13:13;;;;;;;10.13;6.20;;;;;;;41.28;11.86;101142.22;5058390;28;20053;-62
2021/05/28 09:15:43;;;;;;;7.93;5.88;;;;;;;42.22;11.44;101148.69;5057062;28;20053;-62
2021/05/28 09:18:10;;;;;;;6.28;5.68;;;;;;;43.67;10.19;101143.25;5054656;28;20048;-62
2021/05/28 09:20:39;;;;;;;6.00;5.40;;;;;;;44.71;9.74;101139.13;5057103;28;20064;-62
2021/05/28 09:23:15;;;;;;;8.05;5.82;;;;;;;46.28;9.07;101142.38;5054824;28;20490;-62
2021/05/28 09:26:01;;;;;;;7.40;5.60;;;;;;;47.06;7.35;101136.91;5057090;28;20056;-62
2021/05/28 09:28:30;;;;;;;8.30;4.80;;;;;;;48.01;7.34;101139.78;5057880;28;20049;-62
2021/05/28 09:31:02;;;;;;;6.13;5.10;;;;;;;49.41;6.22;101131.53;5060118;28;20068;-62
2021/05/28 09:33:32;;;;;;;5.47;4.97;;;;;;;49.37;6.71;101131.88;5052988;28;20049;-62
2021/05/28 09:36:19;;;;;;;4.93;4.53;;;;;;;49.25;6.48;101136.44;5043412;28;20053;-62
2021/05/28 09:38:58;;;;;;;4.97;4.43;;;;;;;50.59;5.70;101142.44;5059108;28;20057;-60
2021/05/28 09:41:50;;;;;;;5.75;4.20;;;;;;;51.78;4.81;101128.44;5062305;28;20061;-60
2021/05/28 09:44:20;;;;;;;5.85;4.70;;;;;;;51.74;4.59;101136.94;5043075;28;20061;-62
2021/05/28 09:47:14;;;;;;;4.80;4.40;;;;;;;50.24;5.41;101124.81;5060695;28;20048;-61
2021/05/28 09:49:42;;;;;;;4.63;3.67;;;;;;;49.72;4.78;101126.75;5059975;28;20061;-62
2021/05/28 09:52:15;;;;;;;4.63;4.07;;;;;;;51.52;4.08;101126.66;5060848;28;20071;-62
2021/05/28 09:54:56;;;;;;;5.07;3.97;;;;;;;50.85;4.23;101114.72;5056531;28;20053;-61
2021/05/28 09:57:31;;;;;;;4.63;4.00;;;;;;;51.97;4.20;101116.19;5061569;28;20057;-62
2021/05/28 09:59:58;;;;;;;5.50;4.07;;;;;;;52.84;3.43;101122.19;5058009;28;20041;-62
2021/05/28 10:02:30;;;;;;;4.40;4.00;;;;;;;52.75;3.47;101124.38;5059511;28;20480;-62
2021/05/28 10:04:58;;;;;;;5.45;3.78;;;;;;;54.19;2.87;101127.69;5059765;28;20064;-62
2021/05/28 10:07:28;;;;;;;4.57;4.18;;;;;;;53.83;3.42;101117.03;5058980;28;20366;-62
2021/05/28 10:09:57;;;;;;;4.85;4.40;;;;;;;53.57;2.93;101124.38;5056689;28;20044;-62
2021/05/28 10:12:24;;;;;;;4.70;4.32;;;;;;;53.28;2.98;101112.84;5055507;28;20064;-62
2021/05/28 10:14:53;;;;;;;4.50;4.20;;;;;;;53.59;2.67;101112.66;5060596;28;20082;-62
2021/05/28 10:17:21;;;;;;;4.78;4.18;;;;;;;52.78;2.95;101121.56;5060909;28;20060;-62
2021/05/28 10:19:49;;;;;;;4.40;4.00;;;;;;;52.83;3.21;101108.72;5060903;28;20060;-62
2021/05/28 10:22:17;;;;;;;5.05;4.47;;;;;;;52.87;3.38;101103.13;5059477;28;20484;-62
2021/05/28 10:24:45;;;;;;;5.40;4.93;;;;;;;52.82;3.32;101113.88;5060389;28;20156;-62
2021/05/28 10:27:20;;;;;;;4.75;4.10;;;;;;;52.82;3.60;101113.88;5060589;28;20055;-62
2021/05/28 10:29:49;;;;;;;4.90;4.40;;;;;;;53.73;2.79;101113.94;5059762;28;20053;-62
2021/05/28 10:32:16;;;;;;;4.50;4.10;;;;;;;53.45;2.60;101106.97;5058296;28;20060;-62
2021/05/28 10:35:10;;;;;;;5.88;3.97;;;;;;;53.26;2.78;101103.72;5056836;28;20445;-62
2021/05/28 10:37:38;;;;;;;6.97;5.28;;;;;;;52.85;3.10;101111.88;5059653;28;20053;-62
2021/05/28 10:40:24;;;;;;;5.50;4.97;;;;;;;52.38;3.19;101108.22;5059376;28;20425;-64
2021/05/28 10:43:04;;;;;;;4.60;4.20;;;;;;;51.71;3.72;101108.44;5058910;28;20060;-63
2021/05/28 10:45:58;;;;;;;4.07;3.70;;;;;;;53.01;2.84;101098.50;5057700;28;20413;-62
2021/05/28 10:49:01;;;;;;;5.40;3.83;;;;;;;52.38;2.70;101113.34;5054341;28;20662;-63
2021/05/28 10:52:05;;;;;;;4.80;4.40;;;;;;;52.59;2.89;101110.97;5032201;28;20053;-63
2021/05/28 10:54:35;;;;;;;4.25;3.83;;;;;;;52.50;3.40;101099.66;5054946;28;20508;-63
2021/05/28 10:57:19;;;;;;;4.22;3.88;;;;;;;53.70;2.93;101094.28;5055310;28;20064;-63
2021/05/28 10:59:48;;;;;;;5.53;3.88;;;;;;;53.63;2.91;101101.09;5057038;28;20053;-63
2021/05/28 11:02:16;;;;;;;4.25;3.85;;;;;;;53.47;2.50;101094.47;5045498;28;20053;-63
2021/05/28 11:05:07;;;;;;;4.13;3.72;;;;;;;52.62;3.24;101094.88;5055290;28;20413;-62
2021/05/28 11:07:35;;;;;;;4.35;3.88;;;;;;;52.27;3.59;101093.75;5028412;28;20170;-63
2021/05/28 11:10:22;;;;;;;4.80;3.03;;;;;;;52.17;3.47;101096.56;5055244;28;20057;-63
2021/05/28 11:12:50;;;;;;;3.65;3.35;;;;;;;52.44;2.82;101087.97;5056592;28;20071;-63
2021/05/28 11:15:25;;;;;;;3.97;3.58;;;;;;;51.27;3.82;101105.59;5056576;28;20057;-63
2021/05/28 11:17:58;;;;;;;4.40;4.00;;;;;;;49.80;4.21;101095.03;5054897;28;20068;-63
2021/05/28 11:20:31;;;;;;;4.57;3.13;;;;;;;49.11;4.21;101098.03;5052080;28;20054;-63
2021/05/28 11:23:00;;;;;;;3.90;3.30;;;;;;;48.58;4.53;101087.06;5048072;28;20057;-63
2021/05/28 11:25:31;;;;;;;5.05;3.40;;;;;;;47.85;4.76;101082.56;5052618;28;20060;-63
2021/05/28 11:28:09;;;;;;;3.80;3.50;;;;;;;48.29;5.32;101083.09;5056196;28;20060;-63